Nambe, New Mexico
Current Conditions -  °F | °C
As of 3:53 AM on Monday 20 Oct 2014 (Local Time) from KSAF Reporting Station
Overcast Overcast  
Wind Chill: 47°   Ceiling: 9000
Heat Index: 49°   Visibility: 10mi
Dew Point: 39°   Wind: 5mph
Humidity: 69%   Direction: 130°SE
Pressure: 30.22"   Gusts: NA
Location:  35.7017°N, 105.921°W
Report Text: KSAF 200953Z AUTO 13004KT 10SM OVC090 09/04 A3022 RMK AO2 SLP157 T00940039
Loading
Personal Weather Stations






























Interactive Weather Map
Tropical Storm Tracking
New forecast layout! Learn more

10-Day Weather Forecast

Advertisements
Track Severe Weather on mobile